createdAt,value
2023-01-26T00:01:12.826Z,40.03
2023-01-26T00:03:45.130Z,54.70
2023-01-26T00:06:19.165Z,80.07
2023-01-26T00:08:53.348Z,62.28
2023-01-26T00:11:27.498Z,45.40
2023-01-26T00:14:01.348Z,39.90
2023-01-26T00:16:33.359Z,38.78
2023-01-26T00:19:05.689Z,35.17
2023-01-26T00:21:37.724Z,35.45
2023-01-26T00:24:09.699Z,43.65
2023-01-26T00:26:41.699Z,49.78
2023-01-26T00:29:13.684Z,51.83
2023-01-26T00:31:45.712Z,46.05
2023-01-26T00:34:17.670Z,46.63
2023-01-26T00:36:49.667Z,43.42
2023-01-26T00:39:21.722Z,39.15
2023-01-26T00:42:11.800Z,40.28
2023-01-26T00:44:44.232Z,39.05
2023-01-26T00:47:16.975Z,38.25
2023-01-26T00:49:48.922Z,41.25
2023-01-26T00:52:20.908Z,39.85
2023-01-26T00:54:52.880Z,36.85
2023-01-26T00:57:24.866Z,37.20
2023-01-26T00:59:56.812Z,34.08
2023-01-26T01:02:28.843Z,30.75
2023-01-26T01:05:00.825Z,35.75
2023-01-26T01:07:32.848Z,36.78
2023-01-26T01:10:05.083Z,35.63
2023-01-26T01:12:37.207Z,37.88
2023-01-26T01:15:09.733Z,37.67
2023-01-26T01:17:42.255Z,39.38
2023-01-26T01:20:14.366Z,35.53
2023-01-26T01:22:46.431Z,36.58
2023-01-26T01:25:18.331Z,36.92
2023-01-26T01:27:50.245Z,35.75
2023-01-26T01:30:22.187Z,36.33
2023-01-26T01:32:54.167Z,37.25
2023-01-26T01:35:26.124Z,35.55
2023-01-26T01:37:58.107Z,38.58
2023-01-26T01:40:30.135Z,35.42
2023-01-26T01:43:02.102Z,38.42
2023-01-26T01:45:43.213Z,37.40
2023-01-26T01:48:42.452Z,33.78
2023-01-26T01:51:20.250Z,35.28
2023-01-26T01:53:53.687Z,38.17
2023-01-26T01:56:29.840Z,34.28
2023-01-26T01:59:05.029Z,35.00
2023-01-26T02:01:37.259Z,34.78
2023-01-26T02:04:10.165Z,36.33
2023-01-26T02:06:52.191Z,39.97
2023-01-26T02:09:50.364Z,35.70
2023-01-26T02:12:28.120Z,36.22
2023-01-26T02:15:01.707Z,38.17
2023-01-26T02:17:33.721Z,34.58
2023-01-26T02:20:11.018Z,38.75
2023-01-26T02:22:49.533Z,37.47
2023-01-26T02:25:37.515Z,38.47
2023-01-26T02:28:09.591Z,37.58
2023-01-26T02:30:41.628Z,33.92
2023-01-26T02:33:21.890Z,37.83
2023-01-26T02:35:53.930Z,36.38
2023-01-26T02:38:31.138Z,35.55
2023-01-26T02:41:08.052Z,38.55
2023-01-26T02:43:40.563Z,33.80
2023-01-26T02:46:12.586Z,38.33
2023-01-26T02:49:03.287Z,38.88
2023-01-26T02:51:35.307Z,37.10
2023-01-26T02:54:07.272Z,39.05
2023-01-26T02:56:42.350Z,37.38
2023-01-26T02:59:14.268Z,39.22
2023-01-26T03:01:50.508Z,38.67
2023-01-26T03:04:22.510Z,38.70
2023-01-26T03:06:54.544Z,38.50
2023-01-26T03:09:26.477Z,37.05
2023-01-26T03:11:58.483Z,41.67
2023-01-26T03:14:30.545Z,36.10
2023-01-26T03:17:02.514Z,37.33
2023-01-26T03:19:52.959Z,39.28
2023-01-26T03:22:43.661Z,37.15
2023-01-26T03:25:34.452Z,38.30
2023-01-26T03:30:38.278Z,35.00
2023-01-26T03:33:10.198Z,37.88
2023-01-26T03:35:42.196Z,37.00
2023-01-26T03:38:14.175Z,42.53
2023-01-26T03:41:04.696Z,41.95
2023-01-26T03:43:55.317Z,42.75
2023-01-26T03:46:46.215Z,41.38
2023-01-26T03:52:27.252Z,37.22
2023-01-26T03:55:18.053Z,41.83
2023-01-26T04:00:22.209Z,42.30
2023-01-26T04:03:12.987Z,40.78
2023-01-26T04:06:16.422Z,40.92
2023-01-26T04:08:48.743Z,39.28
2023-01-26T04:11:20.691Z,37.17
2023-01-26T04:14:11.120Z,37.20
2023-01-26T04:17:01.750Z,39.53
2023-01-26T04:19:52.575Z,35.47
2023-01-26T04:24:57.576Z,37.08
2023-01-26T04:27:29.493Z,36.58
2023-01-26T04:30:05.094Z,37.42
2023-01-26T04:32:37.209Z,37.22
2023-01-26T04:35:10.591Z,37.00
2023-01-26T04:37:43.084Z,32.90
2023-01-26T04:40:15.147Z,36.97
2023-01-26T04:42:47.283Z,36.65
2023-01-26T04:45:19.180Z,34.72
2023-01-26T04:47:51.244Z,35.50
2023-01-26T04:50:23.220Z,37.20
2023-01-26T04:52:55.138Z,37.50
2023-01-26T04:55:27.077Z,37.50
2023-01-26T04:57:59.068Z,36.95
2023-01-26T05:00:31.039Z,37.50
2023-01-26T05:03:02.991Z,36.05
2023-01-26T05:05:39.142Z,37.15
2023-01-26T05:08:11.284Z,35.22
2023-01-26T05:10:43.554Z,36.28
2023-01-26T05:13:15.999Z,36.35
2023-01-26T05:15:48.199Z,37.13
2023-01-26T05:18:20.199Z,31.75
2023-01-26T05:20:52.208Z,37.40
2023-01-26T05:23:24.300Z,35.28
2023-01-26T05:25:56.273Z,36.22
2023-01-26T05:28:28.485Z,37.35
2023-01-26T05:31:00.537Z,33.53
2023-01-26T05:33:32.740Z,35.55
2023-01-26T05:36:07.071Z,34.22
2023-01-26T05:38:39.019Z,32.65
2023-01-26T05:41:10.952Z,33.25
2023-01-26T05:43:42.876Z,31.25
2023-01-26T05:46:14.879Z,30.27
2023-01-26T05:48:46.867Z,29.60
2023-01-26T05:51:18.889Z,31.20
2023-01-26T05:53:50.831Z,29.20
2023-01-26T05:56:22.762Z,28.75
2023-01-26T05:58:54.725Z,31.25
2023-01-26T06:01:26.682Z,28.13
2023-01-26T06:03:58.680Z,27.73
2023-01-26T06:06:30.703Z,28.35
2023-01-26T06:09:02.736Z,30.23
2023-01-26T06:11:34.717Z,27.20
2023-01-26T06:14:07.156Z,27.85
2023-01-26T06:16:39.250Z,24.23
2023-01-26T06:19:12.025Z,25.67
2023-01-26T06:21:43.965Z,25.70
2023-01-26T06:24:16.044Z,24.00
2023-01-26T06:26:49.648Z,23.67
2023-01-26T06:29:21.795Z,25.80
2023-01-26T06:31:53.984Z,26.05
2023-01-26T06:34:26.420Z,25.45
2023-01-26T06:36:58.680Z,24.35
2023-01-26T06:39:30.594Z,22.70
2023-01-26T06:42:02.569Z,22.15
2023-01-26T06:44:34.479Z,21.38
2023-01-26T06:47:07.741Z,22.38
2023-01-26T06:49:39.696Z,24.17
2023-01-26T06:52:27.581Z,20.25
2023-01-26T06:55:00.788Z,20.60
2023-01-26T06:57:33.037Z,21.67
2023-01-26T07:00:06.333Z,24.05
2023-01-26T07:02:38.328Z,24.00
2023-01-26T07:05:11.405Z,22.83
2023-01-26T07:07:44.844Z,24.48
2023-01-26T07:10:17.010Z,23.00
2023-01-26T07:12:48.923Z,24.52
2023-01-26T07:15:20.878Z,23.55
2023-01-26T07:17:53.031Z,19.23
2023-01-26T07:20:25.395Z,20.42
2023-01-26T07:23:00.117Z,21.45
2023-01-26T07:25:32.063Z,19.75
2023-01-26T07:28:04.085Z,24.02
2023-01-26T07:30:36.082Z,24.10
2023-01-26T07:33:08.021Z,23.80
2023-01-26T07:35:40.035Z,19.08
2023-01-26T07:38:11.954Z,21.67
2023-01-26T07:40:43.923Z,21.00
2023-01-26T07:43:17.146Z,21.02
2023-01-26T07:45:53.607Z,21.05
2023-01-26T07:48:25.611Z,17.50
2023-01-26T07:51:01.965Z,18.98
2023-01-26T07:53:39.705Z,21.73
2023-01-26T07:56:14.006Z,21.10
2023-01-26T07:58:51.030Z,16.85
2023-01-26T08:01:23.313Z,18.90
2023-01-26T08:03:56.509Z,18.05
2023-01-26T08:06:28.467Z,19.85
2023-01-26T08:09:00.574Z,16.23
2023-01-26T08:11:32.572Z,16.13
2023-01-26T08:14:04.632Z,16.42
2023-01-26T08:16:36.778Z,15.68
2023-01-26T08:19:08.919Z,14.27
2023-01-26T08:21:40.904Z,14.70
2023-01-26T08:24:13.646Z,15.05
2023-01-26T08:26:45.659Z,15.15
2023-01-26T08:29:17.637Z,14.40
2023-01-26T08:31:49.673Z,15.35
2023-01-26T08:34:22.883Z,16.77
2023-01-26T08:36:54.830Z,13.70
2023-01-26T08:39:26.774Z,14.45
2023-01-26T08:41:58.779Z,15.23
2023-01-26T08:44:30.761Z,13.80
2023-01-26T08:47:03.140Z,12.63
2023-01-26T08:49:35.054Z,12.52
2023-01-26T08:52:07.074Z,11.52
2023-01-26T08:54:39.010Z,13.95
2023-01-26T08:57:12.557Z,11.70
2023-01-26T08:59:44.907Z,11.52
2023-01-26T09:02:17.074Z,11.80
2023-01-26T09:04:49.073Z,13.85
2023-01-26T09:07:21.254Z,12.65
2023-01-26T09:09:53.211Z,12.70
2023-01-26T09:12:25.327Z,13.63
2023-01-26T09:14:57.285Z,11.90
2023-01-26T09:17:29.893Z,11.25
2023-01-26T09:20:02.026Z,11.10
2023-01-26T09:22:33.966Z,12.40
2023-01-26T09:25:06.443Z,12.77
2023-01-26T09:27:38.653Z,13.88
2023-01-26T09:30:12.180Z,12.80
2023-01-26T09:32:44.193Z,11.60
2023-01-26T09:35:16.411Z,9.43
2023-01-26T09:37:48.626Z,12.45
2023-01-26T09:40:24.623Z,14.88
2023-01-26T09:43:05.606Z,18.50
2023-01-26T09:46:06.531Z,19.52
2023-01-26T09:48:52.994Z,18.77
2023-01-26T09:51:35.826Z,16.25
2023-01-26T09:54:44.933Z,15.18
2023-01-26T09:57:21.401Z,14.18
2023-01-26T10:00:03.075Z,12.32
2023-01-26T10:03:01.760Z,12.10
2023-01-26T10:06:11.035Z,13.73
2023-01-26T10:08:44.541Z,12.38
2023-01-26T10:11:27.618Z,13.32
2023-01-26T10:14:14.645Z,12.23
2023-01-26T10:16:50.803Z,10.77
2023-01-26T10:19:49.642Z,10.68
2023-01-26T10:22:38.715Z,10.82
2023-01-26T10:25:38.093Z,11.52
2023-01-26T10:28:19.512Z,13.52
2023-01-26T10:30:52.252Z,12.98
2023-01-26T10:33:33.190Z,9.57
2023-01-26T10:38:41.038Z,10.57
2023-01-26T10:41:18.987Z,10.13
2023-01-26T10:43:58.299Z,9.55
2023-01-26T10:46:42.014Z,9.82
2023-01-26T10:49:17.444Z,11.05
2023-01-26T10:52:09.424Z,9.52
2023-01-26T10:54:44.145Z,9.73
2023-01-26T10:57:29.187Z,10.40
2023-01-26T11:00:08.692Z,10.75
2023-01-26T11:02:51.095Z,13.60
2023-01-26T11:05:25.493Z,13.10
2023-01-26T11:08:03.401Z,11.88
2023-01-26T11:10:38.285Z,15.30
2023-01-26T11:13:20.305Z,12.27
2023-01-26T11:16:15.313Z,19.20
2023-01-26T11:19:42.942Z,16.48
2023-01-26T11:23:02.036Z,12.65
2023-01-26T11:26:16.350Z,14.23
2023-01-26T11:28:51.023Z,13.25
2023-01-26T11:31:44.447Z,12.85
2023-01-26T11:34:32.676Z,13.20
2023-01-26T11:37:16.629Z,13.57
2023-01-26T11:40:09.980Z,13.00
2023-01-26T11:43:02.729Z,11.85
2023-01-26T11:45:59.482Z,9.55
2023-01-26T11:49:06.560Z,10.10
2023-01-26T11:51:50.113Z,11.10
2023-01-26T11:54:36.385Z,10.52
2023-01-26T11:57:21.600Z,9.88
2023-01-26T12:00:06.308Z,9.75
2023-01-26T12:02:38.833Z,10.30
2023-01-26T12:05:25.652Z,11.32
2023-01-26T12:08:18.243Z,11.05
2023-01-26T12:11:22.926Z,13.10
2023-01-26T12:14:16.883Z,11.68
2023-01-26T12:17:17.766Z,26.40
2023-01-26T12:20:05.130Z,22.08
2023-01-26T12:22:41.013Z,13.27
2023-01-26T12:25:31.967Z,10.88
2023-01-26T12:28:09.110Z,11.82
2023-01-26T12:30:53.363Z,13.20
2023-01-26T12:33:26.141Z,13.90
2023-01-26T12:36:00.921Z,15.18
2023-01-26T12:38:42.023Z,13.65
2023-01-26T12:41:52.336Z,18.23
2023-01-26T12:44:27.449Z,13.57
2023-01-26T12:47:20.684Z,12.57
2023-01-26T12:50:02.613Z,11.63
2023-01-26T12:52:34.559Z,13.82
2023-01-26T12:55:31.686Z,11.43
2023-01-26T12:58:11.434Z,11.05
2023-01-26T13:00:59.725Z,12.40
2023-01-26T13:03:42.126Z,16.02
2023-01-26T13:06:14.104Z,17.35
2023-01-26T13:09:06.228Z,18.77
2023-01-26T13:11:59.378Z,16.60
2023-01-26T13:14:33.835Z,14.07
2023-01-26T13:17:27.550Z,12.63
2023-01-26T13:20:00.416Z,14.52
2023-01-26T13:22:41.606Z,13.38
2023-01-26T13:25:29.528Z,13.25
2023-01-26T13:28:03.597Z,15.07
2023-01-26T13:30:46.558Z,15.77
2023-01-26T13:33:25.135Z,14.07
2023-01-26T13:35:59.630Z,13.65
2023-01-26T13:38:40.723Z,13.27
2023-01-26T13:41:21.775Z,13.50
2023-01-26T13:44:00.004Z,13.00
2023-01-26T13:46:39.552Z,14.20
2023-01-26T13:49:37.983Z,16.13
2023-01-26T13:52:25.967Z,16.42
2023-01-26T13:55:02.329Z,16.38
2023-01-26T13:57:34.290Z,18.27
2023-01-26T14:00:12.084Z,17.50
2023-01-26T14:02:49.745Z,14.50
2023-01-26T14:05:23.519Z,22.63
2023-01-26T14:07:56.620Z,19.70
2023-01-26T14:10:28.892Z,25.02
2023-01-26T14:13:02.970Z,21.08
2023-01-26T14:15:35.391Z,18.15
2023-01-26T14:18:17.120Z,24.23
2023-01-26T14:20:49.144Z,25.75
2023-01-26T14:23:21.295Z,29.73
2023-01-26T14:26:06.092Z,22.88
2023-01-26T14:28:43.624Z,14.27
2023-01-26T14:31:26.387Z,14.48
2023-01-26T14:34:00.048Z,15.75
2023-01-26T14:36:39.431Z,15.02
2023-01-26T14:39:20.065Z,14.98
2023-01-26T14:41:52.170Z,15.90
2023-01-26T14:44:24.221Z,17.00
2023-01-26T14:47:02.402Z,16.63
2023-01-26T14:49:47.208Z,17.77
2023-01-26T14:52:40.720Z,25.70
2023-01-26T14:55:21.264Z,24.45
2023-01-26T14:57:54.397Z,22.40
2023-01-26T15:00:30.900Z,18.55
2023-01-26T15:03:07.704Z,18.20
2023-01-26T15:05:42.448Z,17.83
2023-01-26T15:08:24.753Z,16.88
2023-01-26T15:11:19.636Z,16.25
2023-01-26T15:13:56.011Z,16.40
2023-01-26T15:16:28.146Z,17.13
2023-01-26T15:19:02.309Z,22.02
2023-01-26T15:21:44.028Z,18.27
2023-01-26T15:24:16.485Z,30.35
2023-01-26T15:26:50.367Z,40.75
2023-01-26T15:29:28.795Z,25.98
2023-01-26T15:32:01.069Z,18.73
2023-01-26T15:34:37.038Z,17.42
2023-01-26T15:37:29.060Z,18.45
2023-01-26T15:40:01.154Z,17.65
2023-01-26T15:42:33.687Z,17.33
2023-01-26T15:45:26.197Z,21.63
2023-01-26T15:47:58.196Z,20.50
2023-01-26T15:50:30.125Z,22.50
2023-01-26T15:53:02.095Z,19.80
2023-01-26T15:55:34.300Z,30.15
2023-01-26T15:58:06.169Z,25.95
2023-01-26T16:00:38.168Z,27.00
2023-01-26T16:03:16.645Z,26.10
2023-01-26T16:05:49.219Z,26.83
2023-01-26T16:08:21.144Z,27.48
2023-01-26T16:10:54.887Z,29.75
2023-01-26T16:13:27.051Z,30.48
2023-01-26T16:15:59.303Z,28.10
2023-01-26T16:18:31.225Z,26.48
2023-01-26T16:21:16.119Z,30.00
2023-01-26T16:23:48.709Z,30.25
2023-01-26T16:26:20.967Z,27.02
2023-01-26T16:28:52.984Z,27.25
2023-01-26T16:31:32.924Z,26.20
2023-01-26T16:34:05.097Z,35.20
2023-01-26T16:36:37.042Z,36.17
2023-01-26T16:39:09.042Z,31.80
2023-01-26T16:41:41.011Z,27.90
2023-01-26T16:44:15.428Z,25.23
2023-01-26T16:46:47.552Z,29.05
2023-01-26T16:49:19.548Z,28.67
2023-01-26T16:51:51.520Z,33.10
2023-01-26T16:54:23.453Z,35.30
2023-01-26T16:56:55.565Z,35.45
2023-01-26T16:59:27.484Z,33.50
2023-01-26T17:01:59.663Z,30.35
2023-01-26T17:04:31.669Z,32.72
2023-01-26T17:07:03.655Z,40.55
2023-01-26T17:09:35.623Z,39.05
2023-01-26T17:12:09.211Z,48.22
2023-01-26T17:14:41.208Z,42.38
2023-01-26T17:17:13.141Z,37.78
2023-01-26T17:19:45.264Z,41.03
2023-01-26T17:22:17.272Z,36.10
2023-01-26T17:24:49.924Z,34.75
2023-01-26T17:27:22.203Z,33.75
2023-01-26T17:29:56.380Z,26.73
2023-01-26T17:32:28.660Z,27.00
2023-01-26T17:35:00.587Z,26.52
2023-01-26T17:37:32.558Z,27.25
2023-01-26T17:40:05.845Z,28.83
2023-01-26T17:42:37.814Z,27.88
2023-01-26T17:45:10.746Z,34.22
2023-01-26T17:47:43.913Z,35.78
2023-01-26T17:50:16.245Z,34.92
2023-01-26T17:52:48.639Z,33.85
2023-01-26T17:55:20.762Z,38.03
2023-01-26T17:57:52.819Z,36.22
2023-01-26T18:00:24.746Z,35.40
2023-01-26T18:02:57.024Z,36.60
2023-01-26T18:05:28.916Z,32.45
2023-01-26T18:08:00.864Z,34.53
2023-01-26T18:10:33.049Z,39.60
2023-01-26T18:13:04.990Z,36.78
2023-01-26T18:15:37.732Z,46.35
2023-01-26T18:18:09.684Z,34.58
2023-01-26T18:20:41.742Z,33.20
2023-01-26T18:23:13.685Z,36.22
2023-01-26T18:25:46.395Z,35.25
2023-01-26T18:28:18.750Z,35.80
2023-01-26T18:30:50.757Z,36.72
2023-01-26T18:33:22.800Z,33.72
2023-01-26T18:36:03.611Z,33.80
2023-01-26T18:41:16.283Z,36.60
2023-01-26T18:43:52.157Z,37.13
2023-01-26T18:46:25.026Z,37.88
2023-01-26T18:49:03.968Z,37.28
2023-01-26T18:51:36.653Z,40.13
2023-01-26T18:54:09.943Z,40.65
2023-01-26T18:56:42.240Z,40.92
2023-01-26T18:59:14.211Z,40.38
2023-01-26T19:01:46.143Z,37.53
2023-01-26T19:04:18.464Z,33.67
2023-01-26T19:06:50.491Z,30.80
2023-01-26T19:09:22.956Z,29.35
2023-01-26T19:11:55.760Z,29.42
2023-01-26T19:14:29.277Z,27.92
2023-01-26T19:17:01.770Z,29.10
2023-01-26T19:19:34.519Z,31.10
2023-01-26T19:22:06.499Z,30.98
2023-01-26T19:24:38.432Z,39.60
2023-01-26T19:27:11.246Z,42.08
2023-01-26T19:29:43.207Z,44.95
2023-01-26T19:32:15.179Z,50.25
2023-01-26T19:34:47.130Z,42.38
2023-01-26T19:37:19.329Z,50.08
2023-01-26T19:39:51.311Z,50.33
2023-01-26T19:42:23.320Z,46.67
2023-01-26T19:44:55.184Z,41.58
2023-01-26T19:47:27.205Z,34.10
2023-01-26T19:49:59.160Z,33.67
2023-01-26T19:52:31.104Z,36.47
2023-01-26T19:55:03.073Z,36.20
2023-01-26T19:57:36.471Z,36.70
2023-01-26T20:00:09.241Z,39.55
2023-01-26T20:02:41.416Z,39.17
2023-01-26T20:05:13.629Z,41.67
2023-01-26T20:07:45.680Z,41.42
2023-01-26T20:10:17.782Z,40.60
2023-01-26T20:12:49.749Z,40.85
2023-01-26T20:15:21.669Z,37.20
2023-01-26T20:17:53.556Z,34.47
2023-01-26T20:20:25.496Z,37.30
2023-01-26T20:22:57.920Z,39.95
2023-01-26T20:25:30.848Z,41.80
2023-01-26T20:28:02.765Z,41.55
2023-01-26T20:30:35.026Z,42.45
2023-01-26T20:33:07.731Z,46.72
2023-01-26T20:35:40.951Z,45.63
2023-01-26T20:38:12.999Z,48.88
2023-01-26T20:40:44.949Z,58.75
2023-01-26T20:43:17.038Z,58.15
2023-01-26T20:45:49.246Z,57.33
2023-01-26T20:48:21.107Z,57.97
2023-01-26T20:50:53.490Z,55.63
2023-01-26T20:53:25.427Z,53.20
2023-01-26T20:56:00.303Z,53.90
2023-01-26T20:58:32.245Z,49.92
2023-01-26T21:01:06.728Z,52.85
2023-01-26T21:03:39.544Z,48.25
2023-01-26T21:06:14.425Z,48.33
2023-01-26T21:08:47.767Z,49.05
2023-01-26T21:11:20.960Z,48.05
2023-01-26T21:13:55.321Z,45.75
2023-01-26T21:16:27.806Z,47.85
2023-01-26T21:19:00.266Z,51.92
2023-01-26T21:21:33.048Z,51.60
2023-01-26T21:24:05.316Z,50.13
2023-01-26T21:26:37.617Z,50.90
2023-01-26T21:29:13.560Z,47.35
2023-01-26T21:31:49.606Z,52.20
2023-01-26T21:34:21.583Z,53.10
2023-01-26T21:36:53.558Z,54.47
2023-01-26T21:39:25.633Z,64.35
2023-01-26T21:41:57.776Z,59.40
2023-01-26T21:44:31.733Z,62.78
2023-01-26T21:47:04.246Z,63.50
2023-01-26T21:49:36.163Z,65.38
2023-01-26T21:52:28.071Z,63.50
2023-01-26T21:55:00.099Z,61.80
2023-01-26T21:57:51.003Z,60.88
2023-01-26T22:00:23.102Z,58.72
2023-01-26T22:02:56.863Z,61.20
2023-01-26T22:05:29.123Z,61.55
2023-01-26T22:08:01.119Z,57.53
2023-01-26T22:10:33.055Z,61.40
2023-01-26T22:13:05.216Z,58.97
2023-01-26T22:15:37.146Z,69.13
2023-01-26T22:18:09.078Z,69.65
2023-01-26T22:20:41.040Z,70.68
2023-01-26T22:23:14.335Z,81.93
2023-01-26T22:25:46.272Z,78.72
2023-01-26T22:28:18.252Z,70.85
2023-01-26T22:30:50.203Z,78.35
2023-01-26T22:33:22.164Z,77.00
2023-01-26T22:36:08.494Z,74.25
2023-01-26T22:38:40.677Z,78.20
2023-01-26T22:41:21.612Z,79.85
2023-01-26T22:43:55.564Z,80.45
2023-01-26T22:46:29.108Z,81.85
2023-01-26T22:49:01.292Z,80.35
2023-01-26T22:51:38.815Z,71.20
2023-01-26T22:54:11.082Z,76.07
2023-01-26T22:56:42.903Z,67.93
2023-01-26T22:59:14.863Z,67.57
2023-01-26T23:01:46.955Z,71.63
2023-01-26T23:04:18.912Z,71.43
2023-01-26T23:06:50.926Z,72.00
2023-01-26T23:09:22.933Z,69.50
2023-01-26T23:11:54.881Z,63.50
2023-01-26T23:14:26.813Z,69.90
2023-01-26T23:16:59.379Z,70.90
2023-01-26T23:19:33.854Z,68.72
2023-01-26T23:22:06.020Z,64.03
2023-01-26T23:24:37.946Z,63.72
2023-01-26T23:27:09.887Z,76.30
2023-01-26T23:29:41.841Z,73.70
2023-01-26T23:32:13.783Z,70.43
2023-01-26T23:34:45.736Z,72.70
2023-01-26T23:37:17.669Z,59.80
2023-01-26T23:39:49.611Z,61.50
2023-01-26T23:42:21.541Z,63.03
2023-01-26T23:44:53.521Z,63.85
2023-01-26T23:47:25.574Z,64.47
2023-01-26T23:49:57.604Z,61.22
2023-01-26T23:52:29.521Z,54.42
2023-01-26T23:55:01.545Z,60.35
2023-01-26T23:57:33.892Z,58.03
